createdAt,value
2017-04-15T00:00:20.034Z,94.51
2017-04-15T00:01:20.017Z,94.79
2017-04-15T00:02:19.999Z,94.7
2017-04-15T00:03:19.981Z,94.79
2017-04-15T00:04:19.959Z,94.41
2017-04-15T00:05:19.939Z,94.7
2017-04-15T00:06:19.923Z,94.6
2017-04-15T00:07:19.911Z,94.6
2017-04-15T00:08:19.882Z,94.22
2017-04-15T00:09:19.867Z,94.41
2017-04-15T00:10:19.848Z,94.41
2017-04-15T00:11:19.826Z,94.32
2017-04-15T00:12:19.808Z,94.32
2017-04-15T00:13:19.789Z,94.51
2017-04-15T00:14:19.467Z,94.41
2017-04-15T00:15:19.750Z,94.51
2017-04-15T00:16:19.730Z,94.32
2017-04-15T00:17:19.715Z,94.41
2017-04-15T00:18:19.695Z,94.32
2017-04-15T00:19:19.678Z,94.51
2017-04-15T00:20:19.655Z,94.13
2017-04-15T00:21:19.639Z,94.13
2017-04-15T00:22:19.620Z,94.32
2017-04-15T00:23:19.599Z,94.51
2017-04-15T00:24:19.578Z,94.22
2017-04-15T00:25:19.559Z,94.32
2017-04-15T00:26:19.543Z,94.32
2017-04-15T00:27:19.525Z,94.22
2017-04-15T00:28:19.506Z,94.22
2017-04-15T00:29:19.484Z,94.41
2017-04-15T00:30:19.468Z,94.22
2017-04-15T00:31:19.448Z,94.03
2017-04-15T00:32:19.428Z,94.41
2017-04-15T00:33:19.410Z,94.51
2017-04-15T00:34:19.389Z,93.84
2017-04-15T00:35:19.373Z,94.03
2017-04-15T00:36:19.349Z,93.94
2017-04-15T00:37:19.332Z,94.03
2017-04-15T00:38:19.315Z,93.56
2017-04-15T00:39:19.292Z,93.37
2017-04-15T00:40:19.274Z,93.84
2017-04-15T00:41:19.257Z,93.56
2017-04-15T00:42:19.239Z,93.84
2017-04-15T00:43:19.218Z,93.37
2017-04-15T00:44:19.200Z,93.66
2017-04-15T00:45:19.182Z,93.37
2017-04-15T00:46:19.162Z,93.66
2017-04-15T00:47:19.140Z,93.56
2017-04-15T00:48:19.124Z,93.56
2017-04-15T00:49:19.106Z,93.37
2017-04-15T00:50:19.087Z,93.37
2017-04-15T00:51:19.068Z,93.47
2017-04-15T00:52:19.050Z,93.75
2017-04-15T00:53:19.028Z,93.75
2017-04-15T00:54:19.006Z,93.66
2017-04-15T00:55:18.988Z,93.47
2017-04-15T00:56:18.969Z,93.47
2017-04-15T00:57:18.966Z,93.66
2017-04-15T00:58:18.931Z,93.47
2017-04-15T00:59:18.910Z,93.75
2017-04-15T01:00:18.892Z,93.56
2017-04-15T01:01:18.875Z,93.28
2017-04-15T01:02:18.858Z,93.56
2017-04-15T01:03:18.836Z,93.28
2017-04-15T01:04:18.820Z,93.18
2017-04-15T01:05:18.797Z,93.09
2017-04-15T01:06:18.475Z,93.28
2017-04-15T01:07:18.759Z,93.09
2017-04-15T01:08:18.741Z,93.09
2017-04-15T01:09:18.720Z,93.37
2017-04-15T01:10:18.702Z,93.18
2017-04-15T01:11:18.681Z,92.99
2017-04-15T01:12:18.665Z,93.09
2017-04-15T01:13:18.640Z,92.99
2017-04-15T01:14:18.622Z,93.18
2017-04-15T01:15:18.605Z,93.18
2017-04-15T01:16:18.581Z,93.09
2017-04-15T01:17:18.562Z,93.37
2017-04-15T01:18:18.545Z,92.9
2017-04-15T01:19:18.523Z,92.99
2017-04-15T01:20:18.507Z,93.28
2017-04-15T01:21:18.486Z,93.37
2017-04-15T01:22:18.467Z,92.71
2017-04-15T01:23:18.447Z,92.8
2017-04-15T01:24:18.425Z,92.71
2017-04-15T01:25:18.407Z,92.9
2017-04-15T01:26:18.389Z,92.99
2017-04-15T01:27:18.584Z,92.8
2017-04-15T01:28:18.347Z,92.61
2017-04-15T01:29:18.331Z,92.52
2017-04-15T01:30:18.313Z,92.43
2017-04-15T01:31:18.303Z,92.52
2017-04-15T01:32:18.269Z,92.52
2017-04-15T01:33:18.255Z,92.43
2017-04-15T01:34:18.232Z,92.71
2017-04-15T01:35:18.209Z,92.9
2017-04-15T01:36:18.193Z,92.9
2017-04-15T01:37:18.175Z,92.9
2017-04-15T01:38:18.155Z,92.71
2017-04-15T01:39:18.138Z,92.14
2017-04-15T01:40:18.115Z,92.33
2017-04-15T01:41:18.095Z,92.61
2017-04-15T01:42:18.075Z,92.33
2017-04-15T01:43:18.056Z,91.96
2017-04-15T01:44:18.038Z,92.14
2017-04-15T01:45:18.017Z,92.05
2017-04-15T01:46:17.999Z,92.05
2017-04-15T01:47:17.978Z,92.24
2017-04-15T01:48:17.959Z,92.24
2017-04-15T01:49:17.940Z,92.24
2017-04-15T01:50:17.920Z,91.77
2017-04-15T01:51:17.900Z,91.67
2017-04-15T01:52:17.878Z,91.96
2017-04-15T01:53:17.862Z,92.14
2017-04-15T01:54:17.842Z,92.05
2017-04-15T01:55:17.846Z,92.24
2017-04-15T01:56:18.007Z,92.05
2017-04-15T01:57:17.787Z,92.14
2017-04-15T01:58:17.766Z,92.24
2017-04-15T01:59:17.748Z,91.96
2017-04-15T02:00:17.724Z,92.14
2017-04-15T02:01:17.706Z,91.96
2017-04-15T02:02:17.691Z,91.96
2017-04-15T02:03:17.666Z,92.14
2017-04-15T02:04:17.650Z,91.3
2017-04-15T02:05:17.831Z,91.3
2017-04-15T02:06:17.820Z,91.49
2017-04-15T02:07:17.587Z,91.49
2017-04-15T02:08:17.571Z,91.49
2017-04-15T02:09:17.569Z,91.39
2017-04-15T02:10:17.532Z,91.39
2017-04-15T02:11:17.507Z,91.3
2017-04-15T02:12:17.492Z,91.39
2017-04-15T02:13:17.473Z,91.39
2017-04-15T02:14:17.455Z,91.58
2017-04-15T02:15:17.431Z,91.67
2017-04-15T02:16:17.433Z,91.49
2017-04-15T02:17:17.394Z,91.39
2017-04-15T02:18:17.374Z,91.2
2017-04-15T02:19:17.353Z,91.3
2017-04-15T02:20:17.335Z,91.2
2017-04-15T02:21:17.314Z,91.3
2017-04-15T02:22:17.299Z,90.92
2017-04-15T02:23:17.277Z,91.11
2017-04-15T02:24:17.255Z,91.01
2017-04-15T02:25:17.233Z,91.01
2017-04-15T02:26:17.215Z,91.01
2017-04-15T02:27:17.194Z,91.2
2017-04-15T02:28:17.180Z,90.82
2017-04-15T02:29:17.159Z,91.11
2017-04-15T02:30:30.526Z,91.01
2017-04-15T02:31:17.119Z,90.92
2017-04-15T02:32:17.096Z,90.64
2017-04-15T02:33:17.130Z,90.54
2017-04-15T02:34:17.057Z,90.35
2017-04-15T02:35:17.243Z,90.64
2017-04-15T02:36:17.021Z,90.64
2017-04-15T02:37:16.999Z,90.54
2017-04-15T02:38:16.981Z,90.45
2017-04-15T02:39:16.967Z,90.54
2017-04-15T02:40:16.940Z,90.45
2017-04-15T02:41:16.920Z,90.54
2017-04-15T02:42:16.901Z,90.64
2017-04-15T02:43:16.881Z,90.54
2017-04-15T02:44:16.864Z,90.54
2017-04-15T02:45:16.842Z,90.82
2017-04-15T02:46:16.821Z,90.92
2017-04-15T02:47:16.804Z,90.73
2017-04-15T02:48:16.779Z,90.82
2017-04-15T02:49:16.764Z,90.26
2017-04-15T02:50:16.743Z,90.16
2017-04-15T02:51:16.725Z,90.07
2017-04-15T02:52:16.702Z,90.16
2017-04-15T02:53:16.684Z,90.16
2017-04-15T02:54:16.666Z,90.16
2017-04-15T02:55:16.644Z,90.16
2017-04-15T02:56:16.624Z,90.26
2017-04-15T02:57:16.606Z,90.35
2017-04-15T02:58:16.585Z,90.07
2017-04-15T02:59:16.574Z,90.16
2017-04-15T03:00:16.549Z,89.97
2017-04-15T03:01:16.525Z,89.88
2017-04-15T03:02:16.508Z,89.88
2017-04-15T03:03:16.488Z,90.16
2017-04-15T03:04:16.466Z,90.35
2017-04-15T03:05:16.450Z,89.97
2017-04-15T03:06:16.427Z,89.88
2017-04-15T03:07:16.409Z,89.88
2017-04-15T03:08:16.392Z,90.07
2017-04-15T03:09:16.263Z,89.97
2017-04-15T03:10:16.354Z,90.07
2017-04-15T03:11:16.333Z,90.16
2017-04-15T03:12:16.314Z,89.88
2017-04-15T03:13:16.296Z,89.88
2017-04-15T03:14:16.279Z,89.88
2017-04-15T03:15:16.255Z,89.88
2017-04-15T03:16:16.239Z,89.88
2017-04-15T03:17:16.215Z,89.88
2017-04-15T03:18:16.200Z,89.97
2017-04-15T03:19:16.182Z,90.07
2017-04-15T03:20:16.157Z,89.88
2017-04-15T03:21:16.138Z,90.07
2017-04-15T03:22:16.119Z,90.07
2017-04-15T03:23:16.102Z,89.88
2017-04-15T03:24:16.085Z,89.59
2017-04-15T03:25:16.064Z,89.5
2017-04-15T03:26:16.045Z,89.88
2017-04-15T03:27:16.030Z,89.88
2017-04-15T03:28:16.008Z,89.78
2017-04-15T03:29:15.985Z,89.69
2017-04-15T03:30:15.968Z,89.59
2017-04-15T03:31:15.956Z,89.69
2017-04-15T03:32:15.926Z,89.59
2017-04-15T03:33:15.905Z,89.69
2017-04-15T03:34:15.884Z,89.59
2017-04-15T03:35:15.880Z,89.69
2017-04-15T03:36:15.849Z,89.12
2017-04-15T03:37:15.829Z,89.12
2017-04-15T03:38:15.821Z,89.4
2017-04-15T03:39:15.788Z,89.4
2017-04-15T03:40:15.767Z,89.4
2017-04-15T03:41:15.751Z,89.22
2017-04-15T03:42:15.730Z,89.22
2017-04-15T03:43:15.718Z,89.4
2017-04-15T03:44:15.690Z,89.4
2017-04-15T03:45:15.695Z,89.31
2017-04-15T03:46:15.652Z,89.4
2017-04-15T03:47:15.634Z,89.31
2017-04-15T03:48:15.614Z,89.78
2017-04-15T03:49:15.597Z,89.4
2017-04-15T03:50:15.574Z,89.59
2017-04-15T03:51:15.555Z,89.5
2017-04-15T03:52:15.537Z,89.12
2017-04-15T03:53:15.514Z,89.03
2017-04-15T03:54:15.499Z,89.31
2017-04-15T03:55:15.478Z,88.84
2017-04-15T03:56:15.460Z,89.03
2017-04-15T03:57:15.443Z,89.03
2017-04-15T03:58:15.422Z,89.03
2017-04-15T03:59:15.405Z,88.93
2017-04-15T04:00:15.389Z,88.93
2017-04-15T04:01:15.366Z,88.93
2017-04-15T04:02:15.349Z,88.93
2017-04-15T04:03:15.328Z,89.03
2017-04-15T04:04:15.308Z,88.84
2017-04-15T04:05:15.286Z,89.22
2017-04-15T04:06:15.267Z,89.03
2017-04-15T04:07:15.249Z,89.12
2017-04-15T04:08:15.231Z,88.93
2017-04-15T04:09:15.210Z,88.65
2017-04-15T04:10:15.190Z,88.75
2017-04-15T04:11:15.172Z,88.84
2017-04-15T04:12:15.155Z,88.46
2017-04-15T04:13:15.136Z,88.46
2017-04-15T04:14:15.118Z,88.46
2017-04-15T04:15:15.096Z,88.75
2017-04-15T04:16:15.076Z,88.46
2017-04-15T04:17:15.057Z,88.75
2017-04-15T04:18:15.043Z,88.93
2017-04-15T04:19:15.022Z,88.84
2017-04-15T04:20:15.001Z,88.75
2017-04-15T04:21:14.983Z,88.93
2017-04-15T04:22:14.964Z,88.93
2017-04-15T04:23:14.947Z,88.93
2017-04-15T04:24:14.930Z,88.75
2017-04-15T04:25:14.912Z,88.37
2017-04-15T04:26:14.888Z,88.56
2017-04-15T04:27:14.864Z,88.56
2017-04-15T04:28:14.848Z,88.56
2017-04-15T04:29:14.830Z,88.75
2017-04-15T04:30:14.811Z,88.46
2017-04-15T04:31:14.794Z,88.46
2017-04-15T04:32:14.774Z,88.46
2017-04-15T04:33:14.450Z,88.56
2017-04-15T04:34:14.732Z,88.46
2017-04-15T04:35:14.713Z,88.37
2017-04-15T04:36:14.692Z,88.56
2017-04-15T04:37:14.677Z,88.28
2017-04-15T04:38:14.656Z,88.28
2017-04-15T04:39:14.647Z,88.84
2017-04-15T04:40:14.619Z,88.37
2017-04-15T04:41:14.601Z,88.46
2017-04-15T04:42:14.583Z,88.65
2017-04-15T04:43:14.562Z,88.46
2017-04-15T04:44:14.542Z,88.46
2017-04-15T04:45:14.522Z,88.75
2017-04-15T04:46:14.501Z,88.28
2017-04-15T04:47:14.482Z,88.18
2017-04-15T04:48:14.466Z,88.75
2017-04-15T04:49:14.447Z,88.65
2017-04-15T04:50:14.425Z,88.46
2017-04-15T04:51:14.411Z,88.56
2017-04-15T04:52:14.386Z,88.46
2017-04-15T04:53:14.405Z,88.46
2017-04-15T04:54:14.352Z,88.56
2017-04-15T04:55:14.334Z,87.99
2017-04-15T04:56:14.313Z,88.46
2017-04-15T04:57:14.291Z,88.46
2017-04-15T04:58:14.276Z,88.37
2017-04-15T04:59:14.252Z,88.46
2017-04-15T05:00:14.235Z,88.46
2017-04-15T05:01:14.213Z,88.37
2017-04-15T05:02:14.197Z,88.51
2017-04-15T05:03:14.177Z,88.37
2017-04-15T05:04:14.160Z,87.99
2017-04-15T05:05:14.140Z,88.09
2017-04-15T05:06:14.119Z,88.37
2017-04-15T05:07:14.101Z,88.32
2017-04-15T05:08:14.082Z,88.56
2017-04-15T05:09:14.062Z,88.32
2017-04-15T05:10:14.046Z,87.99
2017-04-15T05:11:14.036Z,88.46
2017-04-15T05:12:14.006Z,88.09
2017-04-15T05:13:13.988Z,87.8
2017-04-15T05:14:13.965Z,87.8
2017-04-15T05:15:13.950Z,87.43
2017-04-15T05:16:13.927Z,87.14
2017-04-15T05:17:13.908Z,87.24
2017-04-15T05:18:13.893Z,87.71
2017-04-15T05:19:13.875Z,87.48
2017-04-15T05:20:13.853Z,87.43
2017-04-15T05:21:13.833Z,87.52
2017-04-15T05:22:13.817Z,87.52
2017-04-15T05:23:13.810Z,87.24
2017-04-15T05:24:13.776Z,87.38
2017-04-15T05:25:13.756Z,87.33
2017-04-15T05:26:13.739Z,87.43
2017-04-15T05:27:13.721Z,87.33
2017-04-15T05:28:13.704Z,86.86
2017-04-15T05:29:13.688Z,87.05
2017-04-15T05:30:13.665Z,86.95
2017-04-15T05:31:13.648Z,86.95
2017-04-15T05:32:13.626Z,87.14
2017-04-15T05:33:13.612Z,86.86
2017-04-15T05:34:13.590Z,86.95
2017-04-15T05:35:13.572Z,86.67
2017-04-15T05:36:13.552Z,86.67
2017-04-15T05:37:13.529Z,86.38
2017-04-15T05:38:13.514Z,86.57
2017-04-15T05:39:13.490Z,86.48
2017-04-15T05:40:13.477Z,86.38
2017-04-15T05:41:13.455Z,86.86
2017-04-15T05:42:13.438Z,86.95
2017-04-15T05:43:13.422Z,87.05
2017-04-15T05:44:13.401Z,87
2017-04-15T05:45:13.381Z,86.82
2017-04-15T05:46:13.361Z,87
2017-04-15T05:47:13.341Z,86.91
2017-04-15T05:48:13.328Z,86.91
2017-04-15T05:49:13.306Z,87
2017-04-15T05:50:13.287Z,87
2017-04-15T05:51:13.267Z,86.72
2017-04-15T05:52:13.246Z,86.72
2017-04-15T05:53:13.227Z,86.38
2017-04-15T05:54:13.212Z,86.19
2017-04-15T05:55:13.191Z,86.48
2017-04-15T05:56:13.168Z,86.48
2017-04-15T05:57:13.151Z,86.48
2017-04-15T05:58:13.209Z,86.57
2017-04-15T05:59:13.111Z,86.76
2017-04-15T06:00:13.094Z,86.63
2017-04-15T06:01:13.073Z,86.72
2017-04-15T06:02:13.055Z,87.1
2017-04-15T06:03:13.033Z,87.19
2017-04-15T06:04:13.018Z,87.1
2017-04-15T06:05:12.992Z,87.19
2017-04-15T06:06:12.973Z,87
2017-04-15T06:07:12.953Z,87.1
2017-04-15T06:08:12.932Z,86.63
2017-04-15T06:09:12.911Z,86.82
2017-04-15T06:10:12.895Z,86.44
2017-04-15T06:11:12.874Z,86.72
2017-04-15T06:12:12.853Z,86.82
2017-04-15T06:13:12.833Z,86.72
2017-04-15T06:14:12.815Z,86.72
2017-04-15T06:15:12.790Z,86.72
2017-04-15T06:16:12.774Z,86.72
2017-04-15T06:17:12.754Z,86.91
2017-04-15T06:18:12.733Z,86.72
2017-04-15T06:19:12.714Z,86.25
2017-04-15T06:20:12.692Z,86.34
2017-04-15T06:21:12.672Z,86.53
2017-04-15T06:22:12.651Z,86.34
2017-04-15T06:23:12.642Z,86.25
2017-04-15T06:24:12.612Z,86.44
2017-04-15T06:25:12.589Z,86.44
2017-04-15T06:26:12.571Z,86.25
2017-04-15T06:27:12.550Z,86.53
2017-04-15T06:28:12.532Z,86.34
2017-04-15T06:29:12.508Z,86.63
2017-04-15T06:30:12.188Z,86.72
2017-04-15T06:31:12.469Z,85.87
2017-04-15T06:32:12.454Z,86.63
2017-04-15T06:33:12.429Z,86.06
2017-04-15T06:34:12.410Z,86.06
2017-04-15T06:35:12.390Z,86.25
2017-04-15T06:36:12.367Z,85.96
2017-04-15T06:37:12.348Z,86.63
2017-04-15T06:38:12.331Z,86.63
2017-04-15T06:39:12.312Z,85.96
2017-04-15T06:40:12.292Z,85.87
2017-04-15T06:41:12.271Z,85.87
2017-04-15T06:42:12.251Z,86.06
2017-04-15T06:43:12.231Z,86.06
2017-04-15T06:44:12.210Z,85.96
2017-04-15T06:45:12.190Z,86.06
2017-04-15T06:46:12.350Z,85.87
2017-04-15T06:47:12.148Z,85.77
2017-04-15T06:48:12.132Z,85.87
2017-04-15T06:49:12.109Z,85.68
2017-04-15T06:50:12.093Z,85.3
2017-04-15T06:51:12.070Z,85.59
2017-04-15T06:52:12.051Z,85.49
2017-04-15T06:53:12.035Z,85.49
2017-04-15T06:54:12.014Z,85.3
2017-04-15T06:55:11.994Z,85.53
2017-04-15T06:56:11.976Z,85.4
2017-04-15T06:57:11.952Z,85.4
2017-04-15T06:58:11.632Z,85.4
2017-04-15T06:59:11.913Z,85.49
2017-04-15T07:00:11.895Z,85.3
2017-04-15T07:01:11.875Z,85.59
2017-04-15T07:02:11.852Z,85.49
2017-04-15T07:03:11.835Z,85.49
2017-04-15T07:04:11.512Z,85.4
2017-04-15T07:05:11.505Z,85.59
2017-04-15T07:06:11.473Z,84.74
2017-04-15T07:07:11.769Z,85.77
2017-04-15T07:08:11.743Z,85.68
2017-04-15T07:09:11.716Z,85.49
2017-04-15T07:10:11.698Z,84.92
2017-04-15T07:11:11.677Z,85.3
2017-04-15T07:12:11.657Z,84.92
2017-04-15T07:13:11.643Z,84.55
2017-04-15T07:14:11.619Z,84.88
2017-04-15T07:15:11.599Z,84.59
2017-04-15T07:16:11.580Z,84.78
2017-04-15T07:17:11.558Z,84.5
2017-04-15T07:18:11.241Z,84.78
2017-04-15T07:19:11.522Z,85.02
2017-04-15T07:20:11.503Z,84.55
2017-04-15T07:21:11.486Z,84.41
2017-04-15T07:22:11.464Z,84.88
2017-04-15T07:23:11.443Z,84.97
2017-04-15T07:24:11.426Z,84.41
2017-04-15T07:25:11.404Z,84.97
2017-04-15T07:26:11.386Z,84.74
2017-04-15T07:27:11.368Z,84.59
2017-04-15T07:28:11.347Z,84.41
2017-04-15T07:29:11.328Z,84.5
2017-04-15T07:30:11.312Z,84.41
2017-04-15T07:31:11.292Z,84.41
2017-04-15T07:32:11.272Z,84.22
2017-04-15T07:33:11.253Z,84.03
2017-04-15T07:34:11.234Z,83.93
2017-04-15T07:35:11.215Z,83.65
2017-04-15T07:36:11.197Z,83.46
2017-04-15T07:37:11.179Z,83.27
2017-04-15T07:38:11.161Z,83.46
2017-04-15T07:39:11.142Z,83.17
2017-04-15T07:40:11.124Z,83.17
2017-04-15T07:41:10.804Z,83.17
2017-04-15T07:42:10.782Z,83.36
2017-04-15T07:43:11.064Z,83.27
2017-04-15T07:44:11.048Z,83.17
2017-04-15T07:45:11.026Z,82.89
2017-04-15T07:46:11.008Z,83.55
2017-04-15T07:47:10.986Z,83.36
2017-04-15T07:48:10.966Z,83.42
2017-04-15T07:49:10.952Z,83.27
2017-04-15T07:50:10.931Z,83.08
2017-04-15T07:51:10.912Z,83.17
2017-04-15T07:52:10.889Z,83.17
2017-04-15T07:53:10.870Z,82.8
2017-04-15T07:54:10.853Z,83.27
2017-04-15T07:55:10.834Z,83.27
2017-04-15T07:56:10.815Z,82.89
2017-04-15T07:57:10.797Z,82.89
2017-04-15T07:58:10.777Z,82.89
2017-04-15T07:59:10.761Z,82.14
2017-04-15T08:00:10.437Z,82.89
2017-04-15T08:01:10.729Z,82.42
2017-04-15T08:02:10.700Z,82.51
2017-04-15T08:03:10.683Z,82.7
2017-04-15T08:04:10.663Z,82.7
2017-04-15T08:05:10.644Z,82.61
2017-04-15T08:06:10.629Z,82.95
2017-04-15T08:07:10.606Z,82.57
2017-04-15T08:08:10.586Z,82.7
2017-04-15T08:09:10.566Z,82.42
2017-04-15T08:10:10.548Z,82.61
2017-04-15T08:11:10.528Z,82.38
2017-04-15T08:12:10.505Z,82.51
2017-04-15T08:13:10.487Z,82.66
2017-04-15T08:14:10.470Z,82.38
2017-04-15T08:15:10.449Z,82.66
2017-04-15T08:16:10.429Z,82.57
2017-04-15T08:17:10.409Z,82.19
2017-04-15T08:18:10.400Z,81.81
2017-04-15T08:19:10.070Z,82.04
2017-04-15T08:20:10.355Z,81.95
2017-04-15T08:21:10.333Z,81.95
2017-04-15T08:22:10.313Z,82.23
2017-04-15T08:23:10.293Z,81.85
2017-04-15T08:24:10.272Z,81.57
2017-04-15T08:25:10.256Z,81.85
2017-04-15T08:26:10.237Z,81.85
2017-04-15T08:27:10.211Z,82.23
2017-04-15T08:28:10.195Z,82.32
2017-04-15T08:29:10.173Z,81.91
2017-04-15T08:30:09.861Z,82.23
2017-04-15T08:31:10.134Z,81.81
2017-04-15T08:32:10.118Z,82.04
2017-04-15T08:33:09.793Z,82.04
2017-04-15T08:34:10.080Z,81.91
2017-04-15T08:35:10.055Z,82.14
2017-04-15T08:36:10.035Z,81.76
2017-04-15T08:37:10.021Z,81.67
2017-04-15T08:38:09.997Z,81.48
2017-04-15T08:39:09.983Z,81.85
2017-04-15T08:40:09.957Z,81.38
2017-04-15T08:41:09.939Z,81.2
2017-04-15T08:42:09.922Z,80.72
2017-04-15T08:43:09.903Z,80.72
2017-04-15T08:44:09.883Z,80.72
2017-04-15T08:45:09.858Z,80.63
2017-04-15T08:46:09.842Z,80.34
2017-04-15T08:47:09.521Z,80.82
2017-04-15T08:48:09.804Z,80.15
2017-04-15T08:49:09.781Z,80.53
2017-04-15T08:50:09.766Z,79.87
2017-04-15T08:51:09.742Z,80.06
2017-04-15T08:52:09.724Z,80.53
2017-04-15T08:53:09.707Z,80.06
2017-04-15T08:54:09.689Z,80.63
2017-04-15T08:55:09.668Z,80.53
2017-04-15T08:56:09.758Z,80.82
2017-04-15T08:57:09.325Z,80.25
2017-04-15T08:58:09.607Z,80.15
2017-04-15T08:59:09.593Z,80.15
2017-04-15T09:00:09.573Z,80.06
2017-04-15T09:01:09.553Z,79.59
2017-04-15T09:02:09.532Z,80.29
2017-04-15T09:03:09.519Z,80.06
2017-04-15T09:04:09.533Z,80.34
2017-04-15T09:05:09.476Z,80.82
2017-04-15T09:06:09.460Z,80.06
2017-04-15T09:07:09.440Z,80.63
2017-04-15T09:08:09.421Z,80.06
2017-04-15T09:09:09.405Z,80.19
2017-04-15T09:10:09.383Z,79.97
2017-04-15T09:11:09.365Z,80.19
2017-04-15T09:12:09.348Z,79.35
2017-04-15T09:13:09.326Z,79.91
2017-04-15T09:14:09.311Z,80.29
2017-04-15T09:15:09.291Z,79.53
2017-04-15T09:16:09.276Z,79.67
2017-04-15T09:17:09.253Z,79.48
2017-04-15T09:18:09.238Z,79.67
2017-04-15T09:19:09.222Z,79.48
2017-04-15T09:20:08.899Z,80.05
2017-04-15T09:21:09.319Z,80.14
2017-04-15T09:22:09.164Z,80.19
2017-04-15T09:23:09.153Z,79.82
2017-04-15T09:24:08.828Z,80.05
2017-04-15T09:25:09.117Z,80.05
2017-04-15T09:26:09.092Z,80.8
2017-04-15T09:27:09.080Z,80.95
2017-04-15T09:28:08.757Z,80.85
2017-04-15T09:29:09.040Z,81.14
2017-04-15T09:30:09.023Z,81.33
2017-04-15T09:31:08.703Z,81.52
2017-04-15T09:32:08.988Z,81.52
2017-04-15T09:33:08.970Z,81.46
2017-04-15T09:34:08.953Z,81.37
2017-04-15T09:35:08.931Z,81.18
2017-04-15T09:36:08.917Z,82.03
2017-04-15T09:37:08.898Z,82.46
2017-04-15T09:38:08.876Z,82.46
2017-04-15T09:39:08.864Z,82.93
2017-04-15T09:40:08.540Z,82.93
2017-04-15T09:41:08.827Z,83.12
2017-04-15T09:42:08.807Z,83.12
2017-04-15T09:43:08.789Z,83.31
2017-04-15T09:44:08.770Z,83.12
2017-04-15T09:45:08.753Z,83.69
2017-04-15T09:46:08.745Z,83.59
2017-04-15T09:47:08.732Z,83.36
2017-04-15T09:48:08.699Z,83.69
2017-04-15T09:49:08.679Z,83.69
2017-04-15T09:50:08.673Z,84.07
2017-04-15T09:51:08.642Z,83.78
2017-04-15T09:52:08.326Z,84.07
2017-04-15T09:53:08.609Z,84.07
2017-04-15T09:54:08.605Z,84.16
2017-04-15T09:55:08.665Z,84.26
2017-04-15T09:56:08.556Z,84.26
2017-04-15T09:57:08.542Z,84.26
2017-04-15T09:58:08.213Z,84.31
2017-04-15T09:59:08.511Z,84.26
2017-04-15T10:00:08.482Z,84.73
2017-04-15T10:01:08.475Z,84.82
2017-04-15T10:02:08.453Z,84.69
2017-04-15T10:03:08.427Z,84.69
2017-04-15T10:04:08.412Z,84.45
2017-04-15T10:05:08.395Z,84.64
2017-04-15T10:06:08.375Z,83.97
2017-04-15T10:07:08.361Z,84.16
2017-04-15T10:08:08.341Z,83.88
2017-04-15T10:09:08.321Z,84.01
2017-04-15T10:10:08.309Z,83.36
2017-04-15T10:11:08.295Z,83.45
2017-04-15T10:12:08.273Z,83.64
2017-04-15T10:13:08.259Z,83.92
2017-04-15T10:14:08.242Z,84.11
2017-04-15T10:15:08.225Z,84.01
2017-04-15T10:16:08.207Z,83.54
2017-04-15T10:17:08.196Z,83.64
2017-04-15T10:18:07.872Z,84.11
2017-04-15T10:19:08.160Z,84.11
2017-04-15T10:20:08.141Z,84.2
2017-04-15T10:21:08.124Z,84.01
2017-04-15T10:22:08.105Z,84.2
2017-04-15T10:23:08.092Z,84.3
2017-04-15T10:24:07.771Z,84.2
2017-04-15T10:25:08.059Z,84.2
2017-04-15T10:26:08.041Z,84.11
2017-04-15T10:27:08.029Z,84.11
2017-04-15T10:28:08.006Z,84.2
2017-04-15T10:29:07.992Z,84.2
2017-04-15T10:30:07.977Z,84.3
2017-04-15T10:31:07.656Z,84.11
2017-04-15T10:32:07.958Z,84.86
2017-04-15T10:33:07.925Z,84.77
2017-04-15T10:34:07.911Z,84.77
2017-04-15T10:35:07.898Z,84.58
2017-04-15T10:36:07.880Z,85.34
2017-04-15T10:37:07.862Z,85.2
2017-04-15T10:38:07.846Z,85.68
2017-04-15T10:39:07.827Z,85.58
2017-04-15T10:40:07.811Z,85.58
2017-04-15T10:41:07.800Z,85.58
2017-04-15T10:42:07.477Z,85.68
2017-04-15T10:43:07.763Z,86.33
2017-04-15T10:44:07.745Z,85.63
2017-04-15T10:45:07.726Z,86.01
2017-04-15T10:46:07.708Z,85.82
2017-04-15T10:47:07.691Z,85.58
2017-04-15T10:48:07.679Z,85.68
2017-04-15T10:49:07.657Z,85.49
2017-04-15T10:50:07.340Z,85.01
2017-04-15T10:51:07.624Z,85.2
2017-04-15T10:52:07.605Z,85.01
2017-04-15T10:53:07.592Z,84.92
2017-04-15T10:54:07.568Z,85.3
2017-04-15T10:55:07.555Z,85.01
2017-04-15T10:56:07.235Z,84.58
2017-04-15T10:57:07.519Z,85.05
2017-04-15T10:58:07.199Z,85.34
2017-04-15T10:59:07.492Z,85.68
2017-04-15T11:00:07.466Z,85.01
2017-04-15T11:01:07.450Z,85.3
2017-04-15T11:02:07.433Z,85.2
2017-04-15T11:03:07.418Z,85.68
2017-04-15T11:04:07.407Z,85.68
2017-04-15T11:05:07.391Z,85.39
2017-04-15T11:06:07.367Z,85.86
2017-04-15T11:07:07.349Z,85.2
2017-04-15T11:08:07.332Z,85.11
2017-04-15T11:09:07.370Z,85.34
2017-04-15T11:10:07.298Z,85.58
2017-04-15T11:11:07.277Z,85.11
2017-04-15T11:12:07.258Z,85.15
2017-04-15T11:13:07.244Z,84.96
2017-04-15T11:14:07.228Z,85.05
2017-04-15T11:15:07.205Z,84.96
2017-04-15T11:16:07.191Z,84.77
2017-04-15T11:17:07.176Z,85.24
2017-04-15T11:18:07.158Z,85.24
2017-04-15T11:19:07.140Z,85.43
2017-04-15T11:20:07.126Z,85.43
2017-04-15T11:21:07.107Z,85.62
2017-04-15T11:22:07.090Z,86
2017-04-15T11:23:07.074Z,85.72
2017-04-15T11:24:07.060Z,85.72
2017-04-15T11:25:07.043Z,85.91
2017-04-15T11:26:07.025Z,85.81
2017-04-15T11:27:07.012Z,85.91
2017-04-15T11:28:06.993Z,85.72
2017-04-15T11:29:06.980Z,85.62
2017-04-15T11:30:06.967Z,86.19
2017-04-15T11:31:06.946Z,86.9
2017-04-15T11:32:06.928Z,87.18
2017-04-15T11:33:06.911Z,87.47
2017-04-15T11:34:06.894Z,87.52
2017-04-15T11:35:06.878Z,87.9
2017-04-15T11:36:06.859Z,87.62
2017-04-15T11:37:06.843Z,87.85
2017-04-15T11:38:06.835Z,87.75
2017-04-15T11:39:06.809Z,88.37
2017-04-15T11:40:06.793Z,88.28
2017-04-15T11:41:06.772Z,88.18
2017-04-15T11:42:06.755Z,88.28
2017-04-15T11:43:06.740Z,88.37
2017-04-15T11:44:06.721Z,87.71
2017-04-15T11:45:06.398Z,87.75
2017-04-15T11:46:06.687Z,87.85
2017-04-15T11:47:06.363Z,87.28
2017-04-15T11:48:06.648Z,86.52
2017-04-15T11:49:06.628Z,87.09
2017-04-15T11:50:06.613Z,87.23
2017-04-15T11:51:06.594Z,87.85
2017-04-15T11:52:06.576Z,87.66
2017-04-15T11:53:06.566Z,87.56
2017-04-15T11:54:06.543Z,87.94
2017-04-15T11:55:06.524Z,87.94
2017-04-15T11:56:06.508Z,87.94
2017-04-15T11:57:06.184Z,87.85
2017-04-15T11:58:06.475Z,87.94
2017-04-15T11:59:06.451Z,87.66
2017-04-15T12:00:06.434Z,87.8
2017-04-15T12:01:06.418Z,87.75
2017-04-15T12:02:06.111Z,87.28
2017-04-15T12:03:06.384Z,87.56
2017-04-15T12:04:06.076Z,87.66
2017-04-15T12:05:06.057Z,87.66
2017-04-15T12:06:06.328Z,87.85
2017-04-15T12:07:06.105Z,87.18
2017-04-15T12:08:05.991Z,87.28
2017-04-15T12:09:06.277Z,87.66
2017-04-15T12:10:06.257Z,87.56
2017-04-15T12:11:06.261Z,87.56
2017-04-15T12:12:06.234Z,87.75
2017-04-15T12:13:06.210Z,87.56
2017-04-15T12:14:06.191Z,87.75
2017-04-15T12:15:06.186Z,88.51
2017-04-15T12:16:06.157Z,88.32
2017-04-15T12:17:05.835Z,88.28
2017-04-15T12:18:06.117Z,88.6
2017-04-15T12:19:06.112Z,88.42
2017-04-15T12:20:05.784Z,88.37
2017-04-15T12:21:06.075Z,88.46
2017-04-15T12:22:06.062Z,88.7
2017-04-15T12:23:06.045Z,88.93
2017-04-15T12:24:06.044Z,88.93
2017-04-15T12:25:05.988Z,88.7
2017-04-15T12:26:05.973Z,88.51
2017-04-15T12:27:05.653Z,88.51
2017-04-15T12:28:05.934Z,88.51
2017-04-15T12:29:05.923Z,88.6
2017-04-15T12:30:05.600Z,88.51
2017-04-15T12:31:05.884Z,88.51
2017-04-15T12:32:05.865Z,88.51
2017-04-15T12:33:05.853Z,88.23
2017-04-15T12:34:05.829Z,88.51
2017-04-15T12:35:05.812Z,88.51
2017-04-15T12:36:05.791Z,88.89
2017-04-15T12:37:05.469Z,88.93
2017-04-15T12:38:05.758Z,88.65
2017-04-15T12:39:05.736Z,89.12
2017-04-15T12:40:05.418Z,89.12
2017-04-15T12:41:05.699Z,88.84
2017-04-15T12:42:05.682Z,89.22
2017-04-15T12:43:05.664Z,88.79
2017-04-15T12:44:05.345Z,88.7
2017-04-15T12:45:05.627Z,88.6
2017-04-15T12:46:05.622Z,88.51
2017-04-15T12:47:05.286Z,88.32
2017-04-15T12:48:05.271Z,88.32
2017-04-15T12:49:05.554Z,88.04
2017-04-15T12:50:05.235Z,88.13
2017-04-15T12:51:05.516Z,88.42
2017-04-15T12:52:05.498Z,88.36
2017-04-15T12:53:05.487Z,88.42
2017-04-15T12:54:05.466Z,88.46
2017-04-15T12:55:05.146Z,88.7